Time;durP1;ratioP1;P1;durP2;ratioP2;P2;SDS_P1;SDS_P2;PMS_P1;PMS_P2;Temp;Humidity;BMP_temperature;BMP_pressure;BME280_temperature;BME280_humidity;BME280_pressure;Samples;Min_cycle;Max_cycle;Signal;HPM_P1;HPM_P2
2023/04/03 00:01:15;;;;;;;2.40;1.33;;;21.90;54.10;;;;;;5033951;28;21029;-78
2023/04/03 00:03:43;;;;;;;1.23;1.13;;;21.90;54.10;;;;;;5029916;28;20463;-76
2023/04/03 00:06:12;;;;;;;1.60;1.20;;;21.90;54.10;;;;;;5014443;28;20440;-75
2023/04/03 00:08:41;;;;;;;1.30;1.20;;;21.90;54.10;;;;;;5023297;28;20656;-76
2023/04/03 00:11:09;;;;;;;1.50;1.40;;;21.90;54.10;;;;;;5034807;28;20518;-75
2023/04/03 00:13:38;;;;;;;1.07;1.07;;;21.90;54.10;;;;;;5028343;28;20467;-76
2023/04/03 00:16:09;;;;;;;1.10;1.10;;;21.90;54.10;;;;;;5022196;28;20651;-76
2023/04/03 00:18:38;;;;;;;1.50;1.40;;;21.90;54.10;;;;;;5014215;28;20441;-76
2023/04/03 00:21:07;;;;;;;1.30;1.30;;;21.90;54.10;;;;;;5030494;28;20985;-76
2023/04/03 00:23:36;;;;;;;1.27;1.17;;;21.90;54.10;;;;;;5032885;28;20453;-76
2023/04/03 00:26:04;;;;;;;1.40;1.30;;;21.90;54.10;;;;;;5034046;28;20470;-78
2023/04/03 00:28:32;;;;;;;1.20;1.20;;;21.90;54.00;;;;;;5033206;28;20994;-79
2023/04/03 00:31:00;;;;;;;1.03;1.03;;;21.90;54.00;;;;;;5016664;28;20859;-76
2023/04/03 00:33:30;;;;;;;1.80;1.70;;;21.90;54.00;;;;;;5033249;28;20514;-76
2023/04/03 00:35:58;;;;;;;1.40;1.40;;;21.90;54.00;;;;;;5029972;28;20493;-76
2023/04/03 00:38:26;;;;;;;1.70;1.60;;;21.90;54.00;;;;;;5026335;28;20941;-76
2023/04/03 00:40:54;;;;;;;1.57;1.50;;;21.90;54.00;;;;;;5013704;28;20514;-76
2023/04/03 00:43:24;;;;;;;1.50;1.40;;;21.90;54.00;;;;;;5027398;28;21072;-76
2023/04/03 00:45:54;;;;;;;1.70;1.60;;;21.90;54.00;;;;;;5034000;28;20487;-77
2023/04/03 00:48:26;;;;;;;1.73;1.63;;;21.90;54.00;;;;;;5021765;28;20455;-77
2023/04/03 00:50:57;;;;;;;1.47;1.37;;;21.90;54.00;;;;;;4996093;28;20497;-77
2023/04/03 00:53:28;;;;;;;1.40;1.30;;;21.90;53.90;;;;;;5021627;28;21190;-77
2023/04/03 00:55:57;;;;;;;1.40;1.30;;;21.90;53.90;;;;;;5032752;28;20432;-76
2023/04/03 00:58:34;;;;;;;1.43;1.30;;;21.80;54.00;;;;;;5011217;28;20891;-76
2023/04/03 01:01:07;;;;;;;1.30;1.30;;;21.90;54.00;;;;;;5033917;28;20569;-77
2023/04/03 01:03:36;;;;;;;1.30;1.30;;;21.80;53.90;;;;;;5015241;28;20439;-77
2023/04/03 01:06:07;;;;;;;1.10;1.10;;;21.80;53.90;;;;;;5015619;28;20454;-75
2023/04/03 01:08:36;;;;;;;1.50;1.40;;;21.80;53.90;;;;;;5014258;28;20459;-79
2023/04/03 01:11:04;;;;;;;1.50;1.40;;;21.90;53.90;;;;;;5032330;28;20500;-77
2023/04/03 01:13:34;;;;;;;1.60;1.50;;;21.80;53.90;;;;;;5032423;28;20435;-76
2023/04/03 01:16:05;;;;;;;1.50;1.40;;;21.90;53.90;;;;;;5015567;28;20475;-78
2023/04/03 01:18:36;;;;;;;1.63;1.53;;;21.90;53.90;;;;;;5015016;28;20550;-80
2023/04/03 01:21:46;;;;;;;1.40;1.30;;;21.80;53.90;;;;;;5015628;28;20824;-76
2023/04/03 01:24:34;;;;;;;1.70;1.60;;;21.80;53.90;;;;;;5021457;28;20518;-76
2023/04/03 01:27:07;;;;;;;1.47;1.37;;;21.80;53.90;;;;;;5014907;28;20868;-76
2023/04/03 01:29:35;;;;;;;1.50;1.40;;;21.80;53.90;;;;;;5014174;28;20490;-79
2023/04/03 01:32:06;;;;;;;1.50;1.40;;;21.80;53.90;;;;;;5026791;28;20551;-77
2023/04/03 01:34:34;;;;;;;1.27;1.27;;;21.80;53.90;;;;;;5013843;28;20850;-76
2023/04/03 01:37:02;;;;;;;1.60;1.50;;;21.80;53.80;;;;;;5014973;28;20927;-77
2023/04/03 01:39:30;;;;;;;1.23;1.23;;;21.80;53.80;;;;;;5032603;28;20839;-76
2023/04/03 01:42:00;;;;;;;1.07;1.07;;;21.80;53.80;;;;;;5014739;28;20502;-76
2023/04/03 01:44:35;;;;;;;1.40;1.30;;;21.80;53.80;;;;;;5002723;28;20939;-77
2023/04/03 01:47:06;;;;;;;1.40;1.30;;;21.80;53.80;;;;;;5020682;28;20505;-75
2023/04/03 01:49:35;;;;;;;1.50;1.40;;;21.80;53.80;;;;;;5014454;28;20463;-76
2023/04/03 01:52:03;;;;;;;1.57;1.50;;;21.80;53.80;;;;;;5014558;28;21049;-76
2023/04/03 01:54:31;;;;;;;1.67;1.57;;;21.80;53.80;;;;;;5031807;28;20952;-75
2023/04/03 01:56:59;;;;;;;1.53;1.37;;;21.80;53.80;;;;;;5014792;28;20546;-76
2023/04/03 01:59:27;;;;;;;1.70;1.60;;;21.80;53.80;;;;;;5014092;28;20822;-76
2023/04/03 02:01:56;;;;;;;1.37;1.37;;;21.80;53.80;;;;;;5013786;28;20533;-76
2023/04/03 02:04:25;;;;;;;1.33;1.33;;;21.80;53.70;;;;;;5022291;28;20522;-79
2023/04/03 02:06:54;;;;;;;1.43;1.43;;;21.80;53.70;;;;;;4996611;28;20456;-80
2023/04/03 02:09:22;;;;;;;1.40;1.30;;;21.80;53.70;;;;;;5022165;28;20464;-78
2023/04/03 02:11:52;;;;;;;1.43;1.33;;;21.80;53.70;;;;;;5011043;28;20464;-76
2023/04/03 02:14:21;;;;;;;1.80;1.70;;;21.80;53.70;;;;;;4998885;28;20482;-75
2023/04/03 02:16:49;;;;;;;1.23;1.20;;;21.80;53.70;;;;;;5030660;28;20462;-76
2023/04/03 02:19:18;;;;;;;1.17;1.13;;;21.80;53.70;;;;;;5031354;28;20457;-76
2023/04/03 02:21:47;;;;;;;1.83;1.73;;;21.80;53.70;;;;;;5030977;28;20844;-76
2023/04/03 02:24:15;;;;;;;1.73;1.50;;;21.80;53.70;;;;;;5012150;28;20989;-76
2023/04/03 02:26:44;;;;;;;1.57;1.47;;;21.80;53.60;;;;;;5014664;28;20455;-79
2023/04/03 02:29:12;;;;;;;1.47;1.40;;;21.80;53.60;;;;;;5013157;28;20553;-76
2023/04/03 02:31:40;;;;;;;1.60;1.50;;;21.80;53.60;;;;;;5014013;28;20459;-75
2023/04/03 02:34:08;;;;;;;1.60;1.50;;;21.80;53.60;;;;;;5025272;28;20460;-77
2023/04/03 02:36:37;;;;;;;1.37;1.30;;;21.80;53.60;;;;;;5013933;28;20991;-77
2023/04/03 02:39:10;;;;;;;1.43;1.40;;;21.80;53.60;;;;;;5012978;28;20983;-76
2023/04/03 02:41:38;;;;;;;1.20;1.20;;;21.80;53.60;;;;;;5031846;28;20951;-76
2023/04/03 02:44:13;;;;;;;1.10;1.10;;;21.80;53.60;;;;;;5005447;28;20839;-76
2023/04/03 02:46:41;;;;;;;1.60;1.50;;;21.80;53.60;;;;;;4996689;28;20483;-75
2023/04/03 02:49:09;;;;;;;1.27;1.17;;;21.80;53.60;;;;;;5004280;28;20468;-75
2023/04/03 02:51:37;;;;;;;1.17;1.10;;;21.80;53.60;;;;;;5012734;28;20571;-76
2023/04/03 02:54:09;;;;;;;1.57;1.47;;;21.80;53.60;;;;;;5005930;28;20492;-78
2023/04/03 02:56:40;;;;;;;1.30;1.27;;;21.80;53.60;;;;;;4994442;28;20464;-76
2023/04/03 02:59:08;;;;;;;1.60;1.50;;;21.80;53.50;;;;;;4993072;28;20463;-76
2023/04/03 03:01:39;;;;;;;1.70;1.53;;;21.80;53.50;;;;;;5011359;28;20487;-77
2023/04/03 03:04:07;;;;;;;1.47;1.40;;;21.80;53.50;;;;;;5007494;28;20540;-76
2023/04/03 03:06:35;;;;;;;1.50;1.40;;;21.80;53.50;;;;;;5011252;28;20852;-76
2023/04/03 03:09:04;;;;;;;1.50;1.40;;;21.80;53.50;;;;;;5010747;28;20440;-81
2023/04/03 03:11:33;;;;;;;1.30;1.20;;;21.80;53.50;;;;;;5031301;28;20457;-78
2023/04/03 03:14:03;;;;;;;1.90;1.80;;;21.80;53.50;;;;;;5012456;28;20493;-77
2023/04/03 03:16:31;;;;;;;1.60;1.50;;;21.80;53.50;;;;;;5031272;28;20456;-79
2023/04/03 03:18:59;;;;;;;1.33;1.23;;;21.80;53.50;;;;;;5030410;28;20862;-76
2023/04/03 03:21:29;;;;;;;1.30;1.30;;;21.80;53.50;;;;;;5012465;28;20489;-76
2023/04/03 03:23:57;;;;;;;1.60;1.50;;;21.80;53.50;;;;;;5008759;28;20928;-77
2023/04/03 03:26:25;;;;;;;1.33;1.27;;;21.80;53.50;;;;;;5023282;28;20826;-76
2023/04/03 03:28:54;;;;;;;1.57;1.47;;;21.70;53.50;;;;;;5029914;28;20506;-76
2023/04/03 03:31:23;;;;;;;1.50;1.50;;;21.80;53.50;;;;;;5031557;28;20944;-76
2023/04/03 03:33:51;;;;;;;1.80;1.57;;;21.80;53.50;;;;;;5026712;28;20445;-76
2023/04/03 03:36:20;;;;;;;1.67;1.57;;;21.80;53.50;;;;;;5011252;28;20428;-75
2023/04/03 03:38:48;;;;;;;1.53;1.43;;;21.70;53.50;;;;;;5011208;28;20445;-79
2023/04/03 03:41:16;;;;;;;1.50;1.50;;;21.80;53.50;;;;;;5010998;28;20468;-75
2023/04/03 03:43:45;;;;;;;1.50;1.40;;;21.70;53.50;;;;;;4993942;28;20466;-76
2023/04/03 03:46:16;;;;;;;1.40;1.30;;;21.70;53.50;;;;;;5011462;28;20452;-76
2023/04/03 03:48:44;;;;;;;1.47;1.40;;;21.70;53.50;;;;;;5016185;28;20458;-77
2023/04/03 03:51:12;;;;;;;1.50;1.40;;;21.70;53.50;;;;;;5029674;28;20478;-76
2023/04/03 03:53:41;;;;;;;1.63;1.53;;;21.70;53.40;;;;;;5022554;28;20542;-76
2023/04/03 03:56:14;;;;;;;1.77;1.67;;;21.70;53.50;;;;;;5013033;28;20558;-80
2023/04/03 03:58:43;;;;;;;1.60;1.50;;;21.70;53.40;;;;;;5007222;28;20473;-79
2023/04/03 04:01:11;;;;;;;2.43;2.23;;;21.70;53.40;;;;;;4993859;28;20456;-76
2023/04/03 04:03:45;;;;;;;1.43;1.43;;;21.70;53.40;;;;;;4995039;28;20893;-79
2023/04/03 04:06:18;;;;;;;1.60;1.50;;;21.70;53.40;;;;;;5031054;28;20453;-76
2023/04/03 04:08:46;;;;;;;1.43;1.43;;;21.70;53.40;;;;;;5027548;28;20448;-76
2023/04/03 04:11:15;;;;;;;1.23;1.23;;;21.70;53.40;;;;;;4992949;28;20464;-77
2023/04/03 04:13:45;;;;;;;1.20;1.20;;;21.70;53.40;;;;;;4997439;28;20465;-80
2023/04/03 04:16:14;;;;;;;1.27;1.27;;;21.70;53.40;;;;;;5002859;28;20486;-76
2023/04/03 04:18:44;;;;;;;1.17;1.17;;;21.70;53.30;;;;;;4998125;28;21065;-77
2023/04/03 04:21:13;;;;;;;1.30;1.20;;;21.70;53.30;;;;;;5012228;28;20521;-76
2023/04/03 04:23:42;;;;;;;1.20;1.20;;;21.70;53.30;;;;;;5010370;28;20544;-78
2023/04/03 04:26:10;;;;;;;1.30;1.20;;;21.70;53.30;;;;;;5030516;28;20516;-79
2023/04/03 04:28:40;;;;;;;1.63;1.53;;;21.70;53.30;;;;;;5012447;28;20461;-76
2023/04/03 04:31:08;;;;;;;1.77;1.67;;;21.70;53.30;;;;;;5012075;28;20451;-76
2023/04/03 04:33:37;;;;;;;1.63;1.53;;;21.70;53.30;;;;;;5015052;28;20478;-76
2023/04/03 04:36:09;;;;;;;1.47;1.37;;;21.70;53.30;;;;;;5004256;28;20466;-76
2023/04/03 04:38:38;;;;;;;0.97;0.97;;;21.70;53.30;;;;;;5015586;28;20469;-76
2023/04/03 04:41:07;;;;;;;1.67;1.57;;;21.70;53.30;;;;;;5015803;28;20491;-75
2023/04/03 04:43:36;;;;;;;1.20;1.20;;;21.70;53.30;;;;;;5015229;28;20853;-76
2023/04/03 04:46:06;;;;;;;1.53;1.50;;;21.70;53.30;;;;;;5015843;28;20533;-76
2023/04/03 04:48:40;;;;;;;1.60;1.37;;;21.70;53.30;;;;;;5016083;28;20879;-82
2023/04/03 04:51:10;;;;;;;1.17;1.17;;;21.70;53.30;;;;;;5014834;28;20491;-76
2023/04/03 04:53:39;;;;;;;1.40;1.40;;;21.70;53.30;;;;;;5015325;28;20470;-76
2023/04/03 04:56:08;;;;;;;1.63;1.53;;;21.70;53.30;;;;;;5016033;28;20972;-76
2023/04/03 04:58:38;;;;;;;1.63;1.53;;;21.70;53.20;;;;;;5014671;28;20464;-76
2023/04/03 05:01:09;;;;;;;1.13;1.13;;;21.70;53.20;;;;;;5012589;28;20992;-79
2023/04/03 05:03:47;;;;;;;1.60;1.50;;;21.70;53.20;;;;;;5015456;28;20478;-76
2023/04/03 05:06:18;;;;;;;1.13;1.13;;;21.70;53.20;;;;;;5015559;28;20987;-76
2023/04/03 05:08:46;;;;;;;1.50;1.50;;;21.70;53.20;;;;;;5015114;28;21017;-76
2023/04/03 05:11:14;;;;;;;1.63;1.53;;;21.70;53.20;;;;;;5015651;28;20536;-77
2023/04/03 05:13:44;;;;;;;1.03;1.03;;;21.70;53.20;;;;;;5012988;28;20471;-78
2023/04/03 05:16:13;;;;;;;1.27;1.17;;;21.70;53.20;;;;;;4996118;28;20467;-76
2023/04/03 05:18:41;;;;;;;1.30;1.20;;;21.70;53.20;;;;;;4995406;28;20946;-76
2023/04/03 05:21:14;;;;;;;1.30;1.20;;;21.70;53.20;;;;;;4999348;28;20845;-76
2023/04/03 05:23:44;;;;;;;1.50;1.40;;;21.70;53.20;;;;;;5014786;28;20485;-77
2023/04/03 05:26:12;;;;;;;1.10;1.10;;;21.70;53.20;;;;;;5033352;28;20810;-79
2023/04/03 05:28:40;;;;;;;1.30;1.20;;;21.70;53.20;;;;;;5013945;28;20470;-76
2023/04/03 05:31:09;;;;;;;1.23;1.20;;;21.70;53.20;;;;;;5015279;28;20466;-76
2023/04/03 05:33:37;;;;;;;1.17;1.17;;;21.70;53.20;;;;;;5015196;28;20460;-76
2023/04/03 05:36:09;;;;;;;1.13;1.13;;;21.70;53.20;;;;;;5003756;28;20887;-75
2023/04/03 05:38:45;;;;;;;1.60;1.50;;;21.70;53.20;;;;;;5032415;28;20472;-76
2023/04/03 05:41:14;;;;;;;1.60;1.50;;;21.70;53.20;;;;;;5015271;28;20467;-76
2023/04/03 05:43:44;;;;;;;1.40;1.30;;;21.70;53.20;;;;;;5013030;28;20495;-80
2023/04/03 05:46:13;;;;;;;1.40;1.30;;;21.70;53.20;;;;;;4995547;28;20504;-76
2023/04/03 05:48:44;;;;;;;1.30;1.30;;;21.70;53.20;;;;;;5012784;28;20576;-75
2023/04/03 05:51:19;;;;;;;1.50;1.40;;;21.70;53.20;;;;;;5013333;28;20494;-79
2023/04/03 05:54:00;;;;;;;1.07;1.07;;;21.70;53.20;;;;;;5012219;28;20461;-75
2023/04/03 05:56:30;;;;;;;1.20;1.20;;;21.70;53.10;;;;;;5000340;28;20978;-76
2023/04/03 05:58:58;;;;;;;1.47;1.37;;;21.70;53.10;;;;;;5013259;28;20467;-75
2023/04/03 06:01:27;;;;;;;1.23;1.20;;;21.70;53.10;;;;;;5012460;28;20470;-76
2023/04/03 06:03:58;;;;;;;1.17;1.17;;;21.70;53.10;;;;;;5011478;28;20483;-76
2023/04/03 06:06:27;;;;;;;1.10;1.10;;;21.70;53.10;;;;;;5011200;28;20463;-79
2023/04/03 06:08:57;;;;;;;1.40;1.30;;;21.70;53.10;;;;;;5024826;28;20491;-82
2023/04/03 06:11:25;;;;;;;1.60;1.50;;;21.70;53.10;;;;;;5028379;28;21265;-76
2023/04/03 06:13:54;;;;;;;1.30;1.20;;;21.70;53.10;;;;;;5025239;28;20446;-80
2023/04/03 06:16:22;;;;;;;1.30;1.30;;;21.70;53.10;;;;;;5031159;28;20982;-79
2023/04/03 06:18:50;;;;;;;1.30;1.20;;;21.70;53.00;;;;;;5031485;28;20539;-76
2023/04/03 06:21:18;;;;;;;1.07;1.07;;;21.70;53.00;;;;;;5014413;28;20459;-76
2023/04/03 06:23:47;;;;;;;1.37;1.37;;;21.70;53.10;;;;;;5013269;28;20486;-76
2023/04/03 06:26:16;;;;;;;1.10;1.10;;;21.70;53.00;;;;;;5011983;28;20444;-77
2023/04/03 06:28:44;;;;;;;1.33;1.20;;;21.70;53.00;;;;;;5026942;28;21087;-77
2023/04/03 06:31:12;;;;;;;1.10;1.10;;;21.70;53.00;;;;;;5031867;28;20482;-76
2023/04/03 06:33:41;;;;;;;1.43;1.33;;;21.70;53.00;;;;;;5031107;28;20467;-77
2023/04/03 06:36:12;;;;;;;1.30;1.30;;;21.70;53.00;;;;;;5029549;28;20873;-76
2023/04/03 06:38:40;;;;;;;1.00;1.00;;;21.70;52.90;;;;;;5011943;28;20429;-76
2023/04/03 06:41:09;;;;;;;1.37;1.27;;;21.70;52.90;;;;;;5014761;28;21433;-76
2023/04/03 06:43:38;;;;;;;1.10;1.00;;;21.70;53.00;;;;;;5030426;28;20489;-76
2023/04/03 06:46:06;;;;;;;1.53;1.43;;;21.70;52.90;;;;;;5028463;28;20839;-77
2023/04/03 06:48:38;;;;;;;1.27;1.27;;;21.70;52.90;;;;;;5030958;28;20432;-76
2023/04/03 06:51:06;;;;;;;1.53;1.43;;;21.70;52.90;;;;;;5031106;28;20451;-77
2023/04/03 06:53:34;;;;;;;1.37;1.30;;;21.70;52.90;;;;;;5030890;28;20449;-76
2023/04/03 06:56:03;;;;;;;1.17;1.13;;;21.70;52.90;;;;;;5031364;28;20476;-77
2023/04/03 06:58:31;;;;;;;1.30;1.30;;;21.70;52.90;;;;;;5030572;28;20446;-76
2023/04/03 07:01:00;;;;;;;1.57;1.47;;;21.70;52.90;;;;;;5029714;28;20451;-80
2023/04/03 07:03:28;;;;;;;1.63;1.53;;;21.70;52.90;;;;;;5026549;28;20572;-76
2023/04/03 07:05:57;;;;;;;1.20;1.20;;;21.70;52.90;;;;;;5013746;28;20998;-77
2023/04/03 07:08:25;;;;;;;1.27;1.17;;;21.70;52.90;;;;;;4993968;28;20803;-79
2023/04/03 07:10:54;;;;;;;1.13;1.13;;;21.70;52.90;;;;;;5011371;28;20540;-79
2023/04/03 07:13:22;;;;;;;1.27;1.20;;;21.80;52.90;;;;;;5012102;28;20825;-80
2023/04/03 07:15:50;;;;;;;1.47;1.37;;;21.70;52.80;;;;;;5028803;28;20491;-76
2023/04/03 07:18:19;;;;;;;1.23;1.20;;;21.70;52.80;;;;;;5030581;28;21064;-76
2023/04/03 07:20:48;;;;;;;1.17;1.17;;;21.70;52.80;;;;;;5031454;28;20525;-77
2023/04/03 07:23:16;;;;;;;1.40;1.10;;;21.80;52.80;;;;;;5030331;28;20530;-76
2023/04/03 07:25:45;;;;;;;1.30;1.20;;;21.70;52.80;;;;;;5030645;28;20451;-80
2023/04/03 07:28:14;;;;;;;1.43;1.33;;;21.80;52.80;;;;;;5030127;28;20490;-81
2023/04/03 07:30:46;;;;;;;1.43;1.33;;;21.80;52.80;;;;;;5011447;28;20444;-76
2023/04/03 07:33:15;;;;;;;1.20;1.20;;;21.80;52.80;;;;;;5001087;28;20467;-78
2023/04/03 07:35:45;;;;;;;1.27;1.17;;;21.80;52.80;;;;;;5031100;28;20493;-80
2023/04/03 07:38:14;;;;;;;1.57;1.47;;;21.80;52.70;;;;;;5030051;28;20799;-80
2023/04/03 07:40:47;;;;;;;1.40;1.30;;;21.80;52.70;;;;;;5030535;28;20458;-76
2023/04/03 07:43:15;;;;;;;1.00;1.00;;;21.80;52.70;;;;;;5030158;28;20527;-76
2023/04/03 07:45:44;;;;;;;1.20;1.20;;;21.80;52.70;;;;;;5029649;28;20593;-76
2023/04/03 07:48:13;;;;;;;1.20;1.20;;;21.80;52.70;;;;;;5030010;28;20466;-80
2023/04/03 07:50:41;;;;;;;1.37;1.27;;;21.80;52.60;;;;;;5031275;28;20451;-76
2023/04/03 07:53:11;;;;;;;1.20;1.20;;;21.80;52.60;;;;;;5030375;28;20483;-77
2023/04/03 07:55:42;;;;;;;1.50;1.40;;;21.80;52.60;;;;;;5030900;28;20451;-76
2023/04/03 07:58:11;;;;;;;1.20;1.20;;;21.80;52.60;;;;;;5029851;28;20451;-81
2023/04/03 08:00:40;;;;;;;1.00;1.00;;;21.90;52.60;;;;;;5030711;28;20442;-77
2023/04/03 08:03:10;;;;;;;1.70;1.57;;;21.90;52.60;;;;;;5021161;28;20445;-84
2023/04/03 08:05:41;;;;;;;1.30;1.23;;;21.90;52.60;;;;;;5029874;28;21061;-77
2023/04/03 08:08:12;;;;;;;1.43;1.33;;;21.90;52.50;;;;;;5034077;28;20521;-77
2023/04/03 08:10:40;;;;;;;2.37;1.40;;;21.90;52.50;;;;;;5034783;28;20431;-79
2023/04/03 08:13:09;;;;;;;1.27;1.17;;;21.90;52.50;;;;;;5034565;28;20527;-80
2023/04/03 08:15:37;;;;;;;1.43;1.33;;;21.90;52.50;;;;;;5033066;28;20512;-77
2023/04/03 08:18:06;;;;;;;1.40;1.30;;;21.90;52.50;;;;;;5031308;28;20436;-82
2023/04/03 08:20:34;;;;;;;1.47;1.37;;;22.00;52.40;;;;;;5034555;28;20438;-78
2023/04/03 08:23:02;;;;;;;1.40;1.30;;;22.00;52.40;;;;;;5033918;28;20577;-77
2023/04/03 08:25:32;;;;;;;1.23;1.17;;;22.00;52.40;;;;;;5034234;28;20494;-76
2023/04/03 08:28:01;;;;;;;1.30;1.20;;;22.00;52.40;;;;;;5030196;28;20810;-76
2023/04/03 08:30:30;;;;;;;1.50;1.40;;;22.00;52.40;;;;;;5026222;28;20455;-78
2023/04/03 08:32:58;;;;;;;1.10;1.10;;;22.00;52.40;;;;;;5034086;28;20914;-77
2023/04/03 08:35:26;;;;;;;1.40;1.30;;;22.00;52.40;;;;;;5033722;28;20932;-76
2023/04/03 08:37:54;;;;;;;1.30;1.30;;;22.00;52.30;;;;;;5033719;28;20462;-76
2023/04/03 08:40:23;;;;;;;0.93;0.93;;;22.00;52.30;;;;;;5034075;28;20430;-78
2023/04/03 08:43:12;;;;;;;1.30;1.30;;;22.00;52.30;;;;;;5033852;28;20454;-76
2023/04/03 08:45:47;;;;;;;1.33;1.23;;;22.00;52.30;;;;;;5032807;28;20507;-76
2023/04/03 08:48:21;;;;;;;1.13;1.13;;;22.00;52.30;;;;;;5033513;28;20454;-76
2023/04/03 08:50:54;;;;;;;1.40;1.30;;;22.00;52.30;;;;;;5033500;28;20434;-76
2023/04/03 08:53:26;;;;;;;1.27;1.27;;;22.10;52.20;;;;;;5033406;28;20458;-80
2023/04/03 08:55:55;;;;;;;1.40;1.40;;;22.10;52.20;;;;;;5034044;28;20447;-77
2023/04/03 08:58:27;;;;;;;1.00;1.00;;;22.10;52.20;;;;;;5032356;28;20535;-83
2023/04/03 09:01:00;;;;;;;1.23;1.17;;;22.10;52.20;;;;;;5033712;28;20463;-76
2023/04/03 09:03:32;;;;;;;1.30;1.30;;;22.10;52.20;;;;;;5027606;28;20467;-78
2023/04/03 09:06:06;;;;;;;1.30;1.20;;;22.10;52.20;;;;;;5033093;28;20484;-78
2023/04/03 09:08:37;;;;;;;1.30;1.20;;;22.10;52.10;;;;;;5033049;28;20439;-79
2023/04/03 09:11:16;;;;;;;1.33;1.23;;;22.10;52.10;;;;;;5033343;28;20882;-80
2023/04/03 09:13:52;;;;;;;1.80;1.70;;;22.10;52.10;;;;;;5031609;28;20999;-79
2023/04/03 09:16:34;;;;;;;1.40;1.30;;;22.10;52.10;;;;;;5031795;28;20882;-80
2023/04/03 09:19:15;;;;;;;1.50;1.40;;;22.10;52.10;;;;;;5031951;28;20464;-77
2023/04/03 09:21:44;;;;;;;3.40;1.50;;;22.10;52.10;;;;;;5013388;28;20424;-80
2023/04/03 09:24:14;;;;;;;1.10;1.07;;;22.10;52.10;;;;;;5017421;28;20944;-76
2023/04/03 09:26:47;;;;;;;1.40;1.30;;;22.10;52.00;;;;;;5033330;28;20957;-76
2023/04/03 09:29:20;;;;;;;1.10;1.00;;;22.10;52.00;;;;;;5031936;28;20453;-81
2023/04/03 09:31:50;;;;;;;1.93;1.70;;;22.10;52.00;;;;;;5032027;28;20527;-77
2023/04/03 09:34:23;;;;;;;1.53;1.40;;;22.10;52.00;;;;;;5033088;28;20446;-77
2023/04/03 09:36:53;;;;;;;1.37;1.27;;;22.10;52.00;;;;;;5032369;28;20478;-76
2023/04/03 09:39:23;;;;;;;1.30;1.20;;;22.10;52.10;;;;;;5032637;28;20456;-77
2023/04/03 09:42:02;;;;;;;1.07;1.07;;;22.10;52.10;;;;;;5030407;28;20542;-76
2023/04/03 09:44:35;;;;;;;1.33;1.23;;;22.10;52.10;;;;;;5031696;28;20431;-76
2023/04/03 09:47:19;;;;;;;1.13;1.13;;;22.10;52.10;;;;;;5033067;28;20922;-76
2023/04/03 09:49:48;;;;;;;1.53;1.43;;;22.10;52.10;;;;;;5030395;28;20574;-79
2023/04/03 09:52:26;;;;;;;1.57;1.47;;;22.10;52.10;;;;;;5032213;28;21014;-77
2023/04/03 09:54:54;;;;;;;1.50;1.40;;;22.10;52.10;;;;;;5012150;28;20854;-78
2023/04/03 09:57:22;;;;;;;1.10;1.10;;;22.10;52.10;;;;;;5013131;28;20535;-78
2023/04/03 10:00:01;;;;;;;1.73;1.63;;;22.10;52.10;;;;;;5011863;28;20441;-76
2023/04/03 10:02:38;;;;;;;1.37;1.27;;;22.10;52.10;;;;;;5016662;28;20492;-78
2023/04/03 10:05:28;;;;;;;1.40;1.30;;;22.10;52.10;;;;;;5012692;28;20479;-79
2023/04/03 10:08:20;;;;;;;1.50;1.40;;;22.10;52.10;;;;;;5014728;28;20948;-76
2023/04/03 10:11:05;;;;;;;1.40;1.30;;;22.10;52.10;;;;;;5021234;28;20943;-78
2023/04/03 10:13:34;;;;;;;1.40;1.30;;;22.10;52.10;;;;;;5031549;28;20435;-76
2023/04/03 10:16:18;;;;;;;1.30;1.20;;;22.10;52.10;;;;;;5032067;28;20458;-80
2023/04/03 10:18:50;;;;;;;1.30;1.20;;;22.00;52.10;;;;;;5024765;28;20936;-76
2023/04/03 10:21:30;;;;;;;1.20;1.20;;;22.00;52.10;;;;;;5010960;28;20447;-76
2023/04/03 10:24:09;;;;;;;1.10;1.10;;;22.10;52.10;;;;;;5012566;28;20467;-78
2023/04/03 10:26:45;;;;;;;2.00;1.57;;;22.10;52.10;;;;;;5029661;28;20520;-76
2023/04/03 10:29:26;;;;;;;1.10;1.10;;;22.10;52.10;;;;;;5011175;28;20471;-76
2023/04/03 10:32:03;;;;;;;1.40;1.30;;;22.10;52.10;;;;;;5030164;28;20954;-77
2023/04/03 10:34:36;;;;;;;1.40;1.30;;;22.10;52.00;;;;;;5030559;28;20525;-76
2023/04/03 10:37:15;;;;;;;1.83;1.73;;;22.10;52.00;;;;;;5030058;28;20503;-77
2023/04/03 10:39:51;;;;;;;1.53;1.43;;;22.10;52.00;;;;;;5031804;28;20431;-76
2023/04/03 10:42:28;;;;;;;0.97;0.97;;;22.10;52.00;;;;;;5026381;28;21006;-76
2023/04/03 10:45:19;;;;;;;1.40;1.30;;;22.10;52.00;;;;;;5030503;28;20459;-76
2023/04/03 10:47:58;;;;;;;1.07;1.07;;;22.10;52.00;;;;;;5007936;28;20811;-77
2023/04/03 10:50:44;;;;;;;1.20;1.20;;;22.10;52.00;;;;;;5031816;28;20497;-76
2023/04/03 10:53:21;;;;;;;1.50;1.40;;;22.10;52.00;;;;;;5024947;28;20571;-77
2023/04/03 10:55:58;;;;;;;1.23;1.13;;;22.10;52.00;;;;;;5011722;28;20467;-76
2023/04/03 10:58:32;;;;;;;1.17;1.17;;;22.10;52.00;;;;;;5011226;28;20555;-76
2023/04/03 11:01:06;;;;;;;1.10;1.07;;;22.10;51.90;;;;;;5025273;28;20469;-77
2023/04/03 11:03:40;;;;;;;1.10;1.10;;;22.10;51.90;;;;;;5030841;28;20431;-76
2023/04/03 11:06:11;;;;;;;1.13;1.13;;;22.20;51.90;;;;;;5030330;28;20508;-78
2023/04/03 11:08:45;;;;;;;1.50;1.40;;;22.20;51.80;;;;;;5030980;28;20943;-76
2023/04/03 11:11:18;;;;;;;1.17;1.07;;;22.20;51.80;;;;;;5031098;28;20973;-76
2023/04/03 11:13:53;;;;;;;1.10;1.10;;;22.20;51.80;;;;;;5025857;28;20837;-79
2023/04/03 11:16:26;;;;;;;1.33;1.27;;;22.20;51.70;;;;;;5011801;28;20539;-76
2023/04/03 11:18:59;;;;;;;1.17;1.17;;;22.30;51.70;;;;;;5011156;28;20432;-78
2023/04/03 11:21:32;;;;;;;1.50;1.40;;;22.30;51.70;;;;;;5025232;28;20805;-82
2023/04/03 11:24:02;;;;;;;1.93;1.40;;;22.30;51.70;;;;;;5030808;28;20432;-76
2023/04/03 11:26:36;;;;;;;1.57;1.27;;;22.30;51.60;;;;;;5013255;28;20897;-77
2023/04/03 11:29:09;;;;;;;1.60;1.50;;;22.30;51.60;;;;;;5030642;28;20443;-77
2023/04/03 11:31:58;;;;;;;1.40;1.30;;;22.30;51.60;;;;;;5030881;28;20448;-76
2023/04/03 11:34:38;;;;;;;1.30;1.20;;;22.30;51.60;;;;;;5029753;28;20925;-79
2023/04/03 11:37:13;;;;;;;1.20;1.20;;;22.40;51.60;;;;;;5030432;28;20443;-76
2023/04/03 11:39:51;;;;;;;1.90;1.37;;;22.40;51.60;;;;;;5026321;28;20530;-77
2023/04/03 11:42:33;;;;;;;1.30;1.20;;;22.30;51.60;;;;;;5034978;28;20920;-77
2023/04/03 11:45:35;;;;;;;1.70;1.60;;;22.30;51.60;;;;;;5034349;28;20462;-77
2023/04/03 11:48:06;;;;;;;1.73;1.63;;;22.40;51.60;;;;;;5034970;28;20979;-76
2023/04/03 11:50:52;;;;;;;1.20;1.20;;;22.30;51.60;;;;;;5034470;28;20444;-76
2023/04/03 11:53:35;;;;;;;1.73;1.63;;;22.30;51.60;;;;;;5034415;28;20455;-78
2023/04/03 11:56:35;;;;;;;1.47;1.37;;;22.30;51.60;;;;;;5015514;28;20436;-76
2023/04/03 11:59:22;;;;;;;1.17;1.17;;;22.30;51.60;;;;;;5023161;28;20526;-79
2023/04/03 12:01:52;;;;;;;1.50;1.40;;;22.30;51.60;;;;;;5034763;28;20466;-76
2023/04/03 12:04:23;;;;;;;1.17;1.07;;;22.30;51.60;;;;;;5033374;28;20436;-77
2023/04/03 12:07:13;;;;;;;1.17;1.07;;;22.30;51.60;;;;;;5026652;28;20474;-78
2023/04/03 12:10:02;;;;;;;1.40;1.30;;;22.30;51.60;;;;;;5014720;28;20424;-76
2023/04/03 12:12:40;;;;;;;1.13;1.03;;;22.30;51.60;;;;;;5014555;28;20460;-76
2023/04/03 12:15:53;;;;;;;1.20;1.13;;;22.30;51.60;;;;;;5019924;28;20578;-76
2023/04/03 12:18:56;;;;;;;1.40;1.30;;;22.30;51.60;;;;;;5034550;28;20420;-79
2023/04/03 12:21:46;;;;;;;1.23;1.20;;;22.20;51.60;;;;;;5034270;28;20596;-76
2023/04/03 12:24:27;;;;;;;1.20;1.20;;;22.20;51.70;;;;;;5029727;28;20467;-83
2023/04/03 12:27:17;;;;;;;1.40;1.30;;;22.20;51.70;;;;;;5014741;28;20468;-78
2023/04/03 12:29:51;;;;;;;1.40;1.30;;;22.20;51.70;;;;;;4996250;28;20870;-76
2023/04/03 12:32:35;;;;;;;1.30;1.27;;;22.20;51.70;;;;;;5014586;28;20460;-77
2023/04/03 12:35:28;;;;;;;1.23;1.13;;;22.20;51.70;;;;;;5021210;28;20462;-76
2023/04/03 12:38:41;;;;;;;1.40;1.30;;;22.20;51.70;;;;;;5034307;28;20910;-77
2023/04/03 12:41:22;;;;;;;1.40;1.40;;;22.20;51.70;;;;;;5034163;28;20535;-80
2023/04/03 12:44:02;;;;;;;1.30;1.20;;;22.20;51.70;;;;;;5025094;28;20958;-77
2023/04/03 12:46:38;;;;;;;1.30;1.20;;;22.20;51.70;;;;;;5014197;28;20814;-76
2023/04/03 12:49:23;;;;;;;2.70;1.40;;;22.20;51.70;;;;;;5023543;28;20459;-83
2023/04/03 12:51:52;;;;;;;1.30;1.30;;;22.20;51.70;;;;;;5032589;28;20575;-77
2023/04/03 12:54:23;;;;;;;1.40;1.30;;;22.20;51.70;;;;;;5032351;28;20552;-77
2023/04/03 12:57:09;;;;;;;1.30;1.20;;;22.20;51.70;;;;;;5033309;28;20981;-81
2023/04/03 12:59:38;;;;;;;1.10;1.10;;;22.20;51.60;;;;;;5032906;28;20914;-77
2023/04/03 13:02:23;;;;;;;1.27;1.27;;;22.20;51.60;;;;;;5033772;28;20876;-76
2023/04/03 13:04:52;;;;;;;1.20;1.10;;;22.20;51.60;;;;;;5032386;28;20442;-74
2023/04/03 13:07:28;;;;;;;1.40;1.30;;;22.20;51.60;;;;;;5013392;28;20987;-74
2023/04/03 13:10:00;;;;;;;1.40;1.30;;;22.20;51.60;;;;;;5018895;28;20539;-74
2023/04/03 13:12:31;;;;;;;1.40;1.30;;;22.30;51.60;;;;;;5033431;28;20452;-74
2023/04/03 13:15:03;;;;;;;1.60;1.50;;;22.20;51.60;;;;;;5031867;28;20443;-77